Time;durP1;ratioP1;P1;durP2;ratioP2;P2;SDS_P1;SDS_P2;PMS_P1;PMS_P2;Temp;Humidity;BMP_temperature;BMP_pressure;BME280_temperature;BME280_humidity;BME280_pressure;Samples;Min_cycle;Max_cycle;Signal;HPM_P1;HPM_P2
2023/03/11 00:00:43;;;;;;;6.68;1.33;;;;;;;;;;6279033;22;20014;-93
2023/03/11 00:03:13;;;;;;;5.13;1.35;;;;;;;;;;6278296;22;20100;-94
2023/03/11 00:05:40;;;;;;;12.15;0.98;;;;;;;;;;6278128;22;20063;-94
2023/03/11 00:08:08;;;;;;;12.73;1.50;;;;;;;;;;6277529;22;20011;-93
2023/03/11 00:10:36;;;;;;;4.40;0.90;;;;;;;;;;6278320;22;20007;-93
2023/03/11 00:13:03;;;;;;;14.23;1.25;;;;;;;;;;6277774;22;20094;-93
2023/03/11 00:15:30;;;;;;;3.47;0.95;;;;;;;;;;6252993;22;20011;-94
2023/03/11 00:17:57;;;;;;;9.43;1.13;;;;;;;;;;6278944;22;20017;-93
2023/03/11 00:20:33;;;;;;;9.35;1.05;;;;;;;;;;6278648;22;20502;-93
2023/03/11 00:23:00;;;;;;;20.70;1.25;;;;;;;;;;6277993;22;20007;-93
2023/03/11 00:25:27;;;;;;;3.33;0.98;;;;;;;;;;6278652;22;20010;-93
2023/03/11 00:27:54;;;;;;;6.20;1.10;;;;;;;;;;6279365;22;20099;-93
2023/03/11 00:30:20;;;;;;;7.45;0.93;;;;;;;;;;6253650;22;20003;-92
2023/03/11 00:32:50;;;;;;;4.97;1.05;;;;;;;;;;6280649;22;20394;-91
2023/03/11 00:35:18;;;;;;;6.57;1.05;;;;;;;;;;6280232;22;20007;-92
2023/03/11 00:37:45;;;;;;;6.97;1.38;;;;;;;;;;6278717;22;20007;-92
2023/03/11 00:40:16;;;;;;;4.05;1.20;;;;;;;;;;6280983;22;20474;-90
2023/03/11 00:42:42;;;;;;;7.22;0.90;;;;;;;;;;6279772;22;20011;-92
2023/03/11 00:45:12;;;;;;;3.60;0.88;;;;;;;;;;6280751;22;20086;-92
2023/03/11 00:47:38;;;;;;;3.40;1.15;;;;;;;;;;6255787;22;20007;-91
2023/03/11 00:50:04;;;;;;;3.20;1.13;;;;;;;;;;6254506;22;20007;-91
2023/03/11 00:52:34;;;;;;;6.85;1.05;;;;;;;;;;6279492;22;20033;-92
2023/03/11 00:55:00;;;;;;;5.18;1.42;;;;;;;;;;6280346;22;20003;-91
2023/03/11 00:57:28;;;;;;;6.55;1.02;;;;;;;;;;6280262;22;20086;-91
2023/03/11 00:59:54;;;;;;;2.30;0.93;;;;;;;;;;6256239;22;20119;-91
2023/03/11 01:02:23;;;;;;;8.05;1.20;;;;;;;;;;6255919;22;20018;-91
2023/03/11 01:05:13;;;;;;;1.92;0.85;;;;;;;;;;6279773;22;20003;-91
2023/03/11 01:07:39;;;;;;;0.17;0.10;;;;;;;;;;6267386;22;20007;-91
2023/03/11 01:10:06;;;;;;;8.57;1.05;;;;;;;;;;6256507;22;20023;-90
2023/03/11 01:12:32;;;;;;;9.63;1.08;;;;;;;;;;6255673;22;20015;-91
2023/03/11 01:15:01;;;;;;;4.38;0.77;;;;;;;;;;6257254;22;20053;-91
2023/03/11 01:17:28;;;;;;;14.05;1.45;;;;;;;;;;6283724;22;20421;-93
2023/03/11 01:19:54;;;;;;;5.80;1.15;;;;;;;;;;6286065;22;20040;-92
2023/03/11 01:22:20;;;;;;;15.05;1.70;;;;;;;;;;6320005;22;20003;-90
2023/03/11 01:24:47;;;;;;;7.78;1.20;;;;;;;;;;6275921;22;20007;-91
2023/03/11 01:27:13;;;;;;;8.68;1.60;;;;;;;;;;6297552;22;20011;-91
2023/03/11 01:29:40;;;;;;;6.90;1.08;;;;;;;;;;6273970;22;20014;-90
2023/03/11 01:32:09;;;;;;;6.63;1.13;;;;;;;;;;6272631;22;20007;-92
2023/03/11 01:34:35;;;;;;;8.38;1.00;;;;;;;;;;6261347;22;19999;-92
2023/03/11 01:37:22;;;;;;;6.43;0.85;;;;;;;;;;6256296;22;20346;-92
2023/03/11 01:39:48;;;;;;;10.95;1.23;;;;;;;;;;6265786;22;20341;-92
2023/03/11 01:42:15;;;;;;;3.03;1.00;;;;;;;;;;6254954;22;20011;-92
2023/03/11 01:44:41;;;;;;;17.92;1.25;;;;;;;;;;6277645;22;20011;-92
2023/03/11 01:47:29;;;;;;;4.35;1.08;;;;;;;;;;6252766;22;20073;-91
2023/03/11 01:49:56;;;;;;;5.18;0.80;;;;;;;;;;6278797;22;20007;-92
2023/03/11 01:52:23;;;;;;;3.20;0.57;;;;;;;;;;6253328;22;20018;-91
2023/03/11 01:55:02;;;;;;;5.25;0.52;;;;;;;;;;6278235;22;20015;-91
2023/03/11 01:57:29;;;;;;;6.03;0.82;;;;;;;;;;6277990;22;20337;-91
2023/03/11 01:59:56;;;;;;;3.22;0.70;;;;;;;;;;6279447;22;20452;-93
2023/03/11 02:02:36;;;;;;;3.90;0.90;;;;;;;;;;6278479;22;20007;-91
2023/03/11 02:05:03;;;;;;;3.00;0.88;;;;;;;;;;6279069;22;20007;-93
2023/03/11 02:07:29;;;;;;;9.63;0.80;;;;;;;;;;6279404;22;20056;-92
2023/03/11 02:09:55;;;;;;;1.45;0.52;;;;;;;;;;6279281;22;20003;-91
2023/03/11 02:12:22;;;;;;;5.40;1.63;;;;;;;;;;6253074;22;20094;-92
2023/03/11 02:14:54;;;;;;;4.28;0.80;;;;;;;;;;6252415;22;20003;-92
2023/03/11 02:17:21;;;;;;;2.30;0.77;;;;;;;;;;6277194;22;20035;-92
2023/03/11 02:20:27;;;;;;;4.38;0.73;;;;;;;;;;6275527;22;20010;-92
2023/03/11 02:22:56;;;;;;;6.25;1.00;;;;;;;;;;6185201;23;20402;-91
2023/03/11 02:25:43;;;;;;;2.17;0.77;;;;;;;;;;6185570;23;20485;-92
2023/03/11 02:28:11;;;;;;;1.52;0.68;;;;;;;;;;6245385;22;20444;-92
2023/03/11 02:30:39;;;;;;;11.90;0.75;;;;;;;;;;6252907;22;20011;-92
2023/03/11 02:33:05;;;;;;;8.60;0.80;;;;;;;;;;6277555;22;20004;-93
2023/03/11 02:35:32;;;;;;;2.92;0.70;;;;;;;;;;6252201;22;20068;-92
2023/03/11 02:37:58;;;;;;;4.15;0.98;;;;;;;;;;6251244;22;20018;-92
2023/03/11 02:40:26;;;;;;;2.60;0.90;;;;;;;;;;6252992;22;20038;-93
2023/03/11 02:43:00;;;;;;;1.85;0.68;;;;;;;;;;6275645;22;20030;-89
2023/03/11 02:45:27;;;;;;;1.92;0.60;;;;;;;;;;6277853;22;20003;-92
2023/03/11 02:47:54;;;;;;;6.13;0.68;;;;;;;;;;6277525;22;20003;-92
2023/03/11 02:50:21;;;;;;;2.08;0.70;;;;;;;;;;6276754;22;20007;-93
2023/03/11 02:52:48;;;;;;;4.60;1.33;;;;;;;;;;6252555;22;20016;-92
2023/03/11 02:55:15;;;;;;;1.52;0.90;;;;;;;;;;6277786;22;20019;-92
2023/03/11 02:57:44;;;;;;;9.52;1.50;;;;;;;;;;6250923;22;20463;-93
2023/03/11 03:00:15;;;;;;;5.57;1.05;;;;;;;;;;6305412;22;20106;-92
2023/03/11 03:02:43;;;;;;;11.85;1.48;;;;;;;;;;6301288;22;20086;-92
2023/03/11 03:05:09;;;;;;;1.88;0.73;;;;;;;;;;6277017;22;20354;-93
2023/03/11 03:07:38;;;;;;;4.70;0.80;;;;;;;;;;6251234;22;20033;-92
2023/03/11 03:10:05;;;;;;;5.88;1.58;;;;;;;;;;6252485;22;20031;-93
2023/03/11 03:12:34;;;;;;;3.25;1.10;;;;;;;;;;6275867;22;20034;-92
2023/03/11 03:15:00;;;;;;;5.43;0.65;;;;;;;;;;6251309;22;20013;-93
2023/03/11 03:17:33;;;;;;;3.63;0.77;;;;;;;;;;6251858;22;20018;-93
2023/03/11 03:19:59;;;;;;;4.45;1.17;;;;;;;;;;6277434;22;20626;-93
2023/03/11 03:22:28;;;;;;;9.18;1.02;;;;;;;;;;6253015;22;20007;-93
2023/03/11 03:24:54;;;;;;;2.95;0.82;;;;;;;;;;6252600;22;20034;-93
2023/03/11 03:27:20;;;;;;;1.95;0.70;;;;;;;;;;6250931;22;20019;-93
2023/03/11 03:29:46;;;;;;;1.23;0.80;;;;;;;;;;6277080;22;20491;-93
2023/03/11 03:32:19;;;;;;;5.00;1.02;;;;;;;;;;6250862;22;20035;-93
2023/03/11 03:34:45;;;;;;;3.05;1.10;;;;;;;;;;6256717;22;20437;-91
2023/03/11 03:37:11;;;;;;;10.65;1.55;;;;;;;;;;6255917;22;20121;-94
2023/03/11 03:39:37;;;;;;;4.78;0.93;;;;;;;;;;6255829;22;20015;-93
2023/03/11 03:42:04;;;;;;;0.85;0.85;;;;;;;;;;6257223;22;20007;-94
2023/03/11 03:44:30;;;;;;;3.33;0.95;;;;;;;;;;6254593;22;20037;-95
2023/03/11 03:46:56;;;;;;;3.65;0.90;;;;;;;;;;6255617;22;20003;-94
2023/03/11 03:49:27;;;;;;;3.53;1.20;;;;;;;;;;6277494;22;20034;-94
2023/03/11 03:51:53;;;;;;;4.55;1.38;;;;;;;;;;6268963;22;20000;-94
2023/03/11 03:54:19;;;;;;;5.90;0.93;;;;;;;;;;6251046;22;20506;-94
2023/03/11 03:56:45;;;;;;;3.33;1.02;;;;;;;;;;6278243;22;20007;-95
2023/03/11 03:59:14;;;;;;;5.45;1.25;;;;;;;;;;6275745;22;20200;-95
2023/03/11 04:01:40;;;;;;;1.73;0.80;;;;;;;;;;6252594;22;20015;-95
2023/03/11 04:04:06;;;;;;;2.20;0.93;;;;;;;;;;6250767;22;20015;-95
2023/03/11 04:06:32;;;;;;;2.47;0.75;;;;;;;;;;6277993;22;20425;-95
2023/03/11 04:08:58;;;;;;;1.40;0.65;;;;;;;;;;6253418;22;20523;-96
2023/03/11 04:11:33;;;;;;;10.30;0.88;;;;;;;;;;6278560;22;20007;-96
2023/03/11 04:14:01;;;;;;;5.10;1.13;;;;;;;;;;6252800;22;20092;-95
2023/03/11 04:16:28;;;;;;;1.60;1.02;;;;;;;;;;6253568;22;20026;-96
2023/03/11 04:18:54;;;;;;;13.38;1.20;;;;;;;;;;6278842;22;20010;-95
2023/03/11 04:21:21;;;;;;;7.40;1.70;;;;;;;;;;6253456;22;20437;-96
2023/03/11 04:23:47;;;;;;;5.30;0.80;;;;;;;;;;6279092;22;20034;-96
2023/03/11 04:26:13;;;;;;;4.30;1.10;;;;;;;;;;6279740;22;20064;-96
2023/03/11 04:28:39;;;;;;;3.85;1.13;;;;;;;;;;6280377;22;20011;-95
2023/03/11 04:31:06;;;;;;;3.00;1.15;;;;;;;;;;6281331;22;20008;-96
2023/03/11 04:33:32;;;;;;;8.00;1.27;;;;;;;;;;6281509;22;20436;-96
2023/03/11 04:35:58;;;;;;;3.97;1.40;;;;;;;;;;6256368;22;20007;-95
2023/03/11 04:38:27;;;;;;;5.22;1.45;;;;;;;;;;6258009;22;20015;-96
2023/03/11 04:40:53;;;;;;;8.40;1.45;;;;;;;;;;6260286;22;20007;-96
2023/03/11 04:43:19;;;;;;;16.10;2.25;;;;;;;;;;6264353;22;20011;-96
2023/03/11 04:45:50;;;;;;;9.80;1.55;;;;;;;;;;6292767;22;20003;-96
2023/03/11 04:48:16;;;;;;;7.32;1.35;;;;;;;;;;6303334;22;20019;-96
2023/03/11 04:50:42;;;;;;;5.50;1.48;;;;;;;;;;6279055;22;20011;-96
2023/03/11 04:53:08;;;;;;;2.20;1.10;;;;;;;;;;6276464;22;20023;-96
2023/03/11 04:55:38;;;;;;;8.60;1.60;;;;;;;;;;6277130;22;20388;-96
2023/03/11 04:58:05;;;;;;;4.32;1.60;;;;;;;;;;6299343;22;20003;-96
2023/03/11 05:00:37;;;;;;;11.55;1.63;;;;;;;;;;6273046;22;20015;-96
2023/03/11 05:03:03;;;;;;;5.07;1.45;;;;;;;;;;6288805;22;20098;-96
2023/03/11 05:05:29;;;;;;;8.18;1.70;;;;;;;;;;6287358;22;20011;-96
2023/03/11 05:07:56;;;;;;;8.38;1.77;;;;;;;;;;6260960;22;20060;-96
2023/03/11 05:10:22;;;;;;;4.32;1.08;;;;;;;;;;6259489;22;20034;-96
2023/03/11 05:12:49;;;;;;;6.63;1.60;;;;;;;;;;6283285;22;20007;-96
2023/03/11 05:15:18;;;;;;;6.07;1.38;;;;;;;;;;6257817;22;20015;-96
2023/03/11 05:17:45;;;;;;;7.53;1.13;;;;;;;;;;6282338;22;20007;-96
2023/03/11 05:20:11;;;;;;;5.63;1.13;;;;;;;;;;6257774;22;20099;-96
2023/03/11 05:22:43;;;;;;;2.30;0.93;;;;;;;;;;6282243;22;20015;-96
2023/03/11 05:25:10;;;;;;;6.53;1.83;;;;;;;;;;6282736;22;20086;-96
2023/03/11 05:27:36;;;;;;;13.00;1.30;;;;;;;;;;6258359;22;20100;-96
2023/03/11 05:30:02;;;;;;;4.32;1.17;;;;;;;;;;6258072;22;20008;-96
2023/03/11 05:32:34;;;;;;;11.48;1.73;;;;;;;;;;6283748;22;20025;-96
2023/03/11 05:35:07;;;;;;;2.95;1.02;;;;;;;;;;6283075;22;20029;-96
2023/03/11 05:37:34;;;;;;;1.70;0.80;;;;;;;;;;6283253;22;20522;-96
2023/03/11 05:40:10;;;;;;;5.72;1.17;;;;;;;;;;6282805;22;20055;-96
2023/03/11 05:42:36;;;;;;;1.88;1.15;;;;;;;;;;6283075;22;20000;-95
2023/03/11 05:45:02;;;;;;;2.85;1.20;;;;;;;;;;6282873;22;20031;-96
2023/03/11 05:47:29;;;;;;;12.73;1.50;;;;;;;;;;6257733;22;20333;-96
2023/03/11 05:49:55;;;;;;;5.15;1.40;;;;;;;;;;6257714;22;20007;-96
2023/03/11 05:52:25;;;;;;;7.88;1.63;;;;;;;;;;6258001;22;20014;-96
2023/03/11 05:54:51;;;;;;;8.57;1.20;;;;;;;;;;6282169;22;20030;-96
2023/03/11 05:57:18;;;;;;;9.80;1.17;;;;;;;;;;6282855;22;20463;-96
2023/03/11 05:59:44;;;;;;;6.95;1.48;;;;;;;;;;6257782;22;20035;-96
2023/03/11 06:02:11;;;;;;;4.68;1.42;;;;;;;;;;6283660;22;20407;-96
2023/03/11 06:04:37;;;;;;;8.32;1.30;;;;;;;;;;6285490;22;20216;-96
2023/03/11 06:07:03;;;;;;;7.40;1.25;;;;;;;;;;6260320;22;20452;-96
2023/03/11 06:09:30;;;;;;;9.02;1.25;;;;;;;;;;6282776;22;20424;-96
2023/03/11 06:11:56;;;;;;;4.53;1.23;;;;;;;;;;6257513;22;20026;-96
2023/03/11 06:14:22;;;;;;;4.55;1.10;;;;;;;;;;6256805;22;20092;-96
2023/03/11 06:16:48;;;;;;;6.80;1.77;;;;;;;;;;6282582;22;20337;-96
2023/03/11 06:19:14;;;;;;;14.93;1.85;;;;;;;;;;6255991;22;20065;-96
2023/03/11 06:21:41;;;;;;;4.82;1.90;;;;;;;;;;6283823;22;20030;-96
2023/03/11 06:24:07;;;;;;;5.05;1.70;;;;;;;;;;6283727;22;20007;-96
2023/03/11 06:26:33;;;;;;;5.10;1.33;;;;;;;;;;6259227;22;20011;-96
2023/03/11 06:29:00;;;;;;;2.80;1.15;;;;;;;;;;6284711;22;20461;-96
2023/03/11 06:31:27;;;;;;;4.93;1.60;;;;;;;;;;6260038;22;20008;-96
2023/03/11 06:33:58;;;;;;;7.07;1.73;;;;;;;;;;6287592;22;20007;-96
2023/03/11 06:36:24;;;;;;;10.15;1.58;;;;;;;;;;6290034;22;20011;-96
2023/03/11 06:38:51;;;;;;;3.85;1.50;;;;;;;;;;6299475;22;20007;-96
2023/03/11 06:41:22;;;;;;;5.90;1.83;;;;;;;;;;6299345;22;20039;-96
2023/03/11 06:43:48;;;;;;;8.73;2.25;;;;;;;;;;6271541;22;20011;-96
2023/03/11 06:46:20;;;;;;;9.85;1.75;;;;;;;;;;6301310;22;19995;-96
2023/03/11 06:48:51;;;;;;;9.57;2.10;;;;;;;;;;6301459;22;20372;-96
2023/03/11 06:51:29;;;;;;;11.32;1.92;;;;;;;;;;6323237;22;20025;-96
2023/03/11 06:53:58;;;;;;;3.38;1.52;;;;;;;;;;6296774;22;20018;-96
2023/03/11 06:56:24;;;;;;;6.88;1.63;;;;;;;;;;6296651;22;20425;-96
2023/03/11 06:58:51;;;;;;;8.30;1.40;;;;;;;;;;6299657;22;20003;-96
2023/03/11 07:01:22;;;;;;;4.95;1.30;;;;;;;;;;6302293;22;20208;-96
2023/03/11 07:07:38;;;;;;;7.65;3.08;;;;;;;;;;6336122;22;20002;-96
2023/03/11 07:15:40;;;;;;;8.20;3.07;;;;;;;;;;6273814;22;20159;-90
2023/03/11 07:18:14;;;;;;;8.60;1.75;;;;;;;;;;6237004;22;20253;-89
2023/03/11 07:20:41;;;;;;;3.67;1.50;;;;;;;;;;6273159;22;20018;-90
2023/03/11 07:23:09;;;;;;;128.57;11.73;;;;;;;;;;6245678;22;20012;-90
2023/03/11 07:25:40;;;;;;;3.47;1.20;;;;;;;;;;6274230;22;20010;-90
2023/03/11 07:28:10;;;;;;;5.72;1.20;;;;;;;;;;6272344;22;20506;-90
2023/03/11 07:30:38;;;;;;;4.90;1.20;;;;;;;;;;6246770;22;20012;-90
2023/03/11 07:33:07;;;;;;;10.25;1.65;;;;;;;;;;6273054;22;20101;-90
2023/03/11 07:35:35;;;;;;;24.58;2.70;;;;;;;;;;6247403;22;20015;-90
2023/03/11 07:38:01;;;;;;;17.75;1.83;;;;;;;;;;6271263;22;20016;-90
2023/03/11 07:40:36;;;;;;;4.03;1.77;;;;;;;;;;6247940;22;20187;-91
2023/03/11 07:43:03;;;;;;;6.95;1.50;;;;;;;;;;6247693;22;20008;-91
2023/03/11 07:45:29;;;;;;;3.35;1.30;;;;;;;;;;6250685;22;20008;-92
2023/03/11 07:47:57;;;;;;;9.27;1.10;;;;;;;;;;6215937;23;20018;-92
2023/03/11 07:50:23;;;;;;;7.25;1.08;;;;;;;;;;6217028;23;20015;-92
2023/03/11 07:52:49;;;;;;;71.60;5.75;;;;;;;;;;6216540;23;20012;-91
2023/03/11 07:55:15;;;;;;;3.38;1.30;;;;;;;;;;6241936;23;20012;-91
2023/03/11 07:57:50;;;;;;;54.35;4.22;;;;;;;;;;6242322;23;20050;-90
2023/03/11 08:00:23;;;;;;;11.35;1.30;;;;;;;;;;6240683;23;20011;-91
2023/03/11 08:02:50;;;;;;;2.55;0.93;;;;;;;;;;6242260;23;20023;-91
2023/03/11 08:05:20;;;;;;;1.95;0.93;;;;;;;;;;6246889;23;20149;-91
2023/03/11 08:07:49;;;;;;;3.25;1.48;;;;;;;;;;6245236;23;20000;-91
2023/03/11 08:10:24;;;;;;;1.98;1.00;;;;;;;;;;6220483;23;20373;-90
2023/03/11 08:12:53;;;;;;;1.95;1.20;;;;;;;;;;6216699;23;20043;-91
2023/03/11 08:15:20;;;;;;;5.10;1.50;;;;;;;;;;6241807;22;20016;-91
2023/03/11 08:17:46;;;;;;;9.95;1.50;;;;;;;;;;6240613;23;20362;-90
2023/03/11 08:20:13;;;;;;;5.57;1.80;;;;;;;;;;6217624;23;20043;-91
2023/03/11 08:22:42;;;;;;;7.13;1.80;;;;;;;;;;6213708;23;20016;-89
2023/03/11 08:25:09;;;;;;;7.63;1.83;;;;;;;;;;6216276;23;20008;-90
2023/03/11 08:27:39;;;;;;;7.72;1.30;;;;;;;;;;6240757;23;20482;-90
2023/03/11 08:30:07;;;;;;;6.47;1.42;;;;;;;;;;6218945;23;20401;-89
2023/03/11 08:32:42;;;;;;;11.15;1.92;;;;;;;;;;6244280;23;20079;-89
2023/03/11 08:35:09;;;;;;;11.07;3.60;;;;;;;;;;6219280;23;20027;-89
2023/03/11 08:37:36;;;;;;;8.55;2.50;;;;;;;;;;6240918;23;20050;-89
2023/03/11 08:40:02;;;;;;;8.52;2.70;;;;;;;;;;6220828;23;20015;-89
2023/03/11 08:42:28;;;;;;;3.38;1.80;;;;;;;;;;6245143;23;20008;-90
2023/03/11 08:44:54;;;;;;;7.00;1.73;;;;;;;;;;6213604;23;20072;-89
2023/03/11 08:47:20;;;;;;;7.28;2.83;;;;;;;;;;6241010;23;20012;-90
2023/03/11 08:49:48;;;;;;;9.32;2.03;;;;;;;;;;6218428;23;20115;-89
2023/03/11 08:52:15;;;;;;;5.30;1.70;;;;;;;;;;6218239;23;20012;-89
2023/03/11 08:54:47;;;;;;;4.30;1.20;;;;;;;;;;6217987;23;20027;-90
2023/03/11 08:57:16;;;;;;;5.97;1.55;;;;;;;;;;6243471;23;20011;-90
2023/03/11 08:59:42;;;;;;;7.40;1.60;;;;;;;;;;6218262;23;20469;-91
2023/03/11 09:02:10;;;;;;;3.70;1.50;;;;;;;;;;6218572;23;20016;-92
2023/03/11 09:04:42;;;;;;;4.85;1.58;;;;;;;;;;6244939;23;20031;-91
2023/03/11 09:07:09;;;;;;;11.27;1.85;;;;;;;;;;6219385;23;20031;-91
2023/03/11 09:09:37;;;;;;;4.75;1.52;;;;;;;;;;6245220;23;20016;-90
2023/03/11 09:12:06;;;;;;;3.70;2.00;;;;;;;;;;6218051;23;20023;-90
2023/03/11 09:14:36;;;;;;;7.30;1.70;;;;;;;;;;6243383;22;20103;-90
2023/03/11 09:17:02;;;;;;;5.80;2.00;;;;;;;;;;6217825;23;20018;-90
2023/03/11 09:19:33;;;;;;;12.70;2.30;;;;;;;;;;6217425;23;20362;-90
2023/03/11 09:22:00;;;;;;;4.63;1.48;;;;;;;;;;6245675;23;20014;-91
2023/03/11 09:24:26;;;;;;;7.20;2.20;;;;;;;;;;6219809;23;20004;-91
2023/03/11 09:26:56;;;;;;;2.80;1.40;;;;;;;;;;6219640;23;20008;-91
2023/03/11 09:29:22;;;;;;;7.03;1.42;;;;;;;;;;6221857;23;20338;-91
2023/03/11 09:31:51;;;;;;;4.75;1.38;;;;;;;;;;6220275;23;20008;-90
2023/03/11 09:34:19;;;;;;;6.53;1.75;;;;;;;;;;6251109;23;20344;-91
2023/03/11 09:36:49;;;;;;;3.13;1.45;;;;;;;;;;6220350;23;20012;-89
2023/03/11 09:39:18;;;;;;;5.18;1.75;;;;;;;;;;6247408;23;20030;-90
2023/03/11 09:41:47;;;;;;;2.75;1.50;;;;;;;;;;6250056;23;20346;-90
2023/03/11 09:44:22;;;;;;;4.43;1.20;;;;;;;;;;6248102;22;20008;-90
2023/03/11 09:47:09;;;;;;;12.70;1.80;;;;;;;;;;6249664;23;20035;-90
2023/03/11 09:49:57;;;;;;;5.28;1.60;;;;;;;;;;6248341;23;20005;-90
2023/03/11 09:52:40;;;;;;;4.32;1.92;;;;;;;;;;6248216;23;20004;-90
2023/03/11 09:55:26;;;;;;;4.70;2.17;;;;;;;;;;6249302;23;20008;-90
2023/03/11 09:58:01;;;;;;;11.73;3.72;;;;;;;;;;6252471;23;20325;-89
2023/03/11 10:00:29;;;;;;;1.77;1.42;;;;;;;;;;6252516;23;20446;-89
2023/03/11 10:02:56;;;;;;;14.88;2.60;;;;;;;;;;6248335;23;20008;-90
2023/03/11 10:05:30;;;;;;;4.93;1.33;;;;;;;;;;6250378;23;20000;-90
2023/03/11 10:08:10;;;;;;;8.48;1.70;;;;;;;;;;6227326;23;20027;-90
2023/03/11 10:10:40;;;;;;;5.40;1.67;;;;;;;;;;6246733;23;20008;-90
2023/03/11 10:13:33;;;;;;;2.63;1.30;;;;;;;;;;6245838;23;20470;-89
2023/03/11 10:16:21;;;;;;;8.35;1.40;;;;;;;;;;6251913;22;20019;-90
2023/03/11 10:18:48;;;;;;;5.30;1.58;;;;;;;;;;6198494;22;19996;-90
2023/03/11 10:21:33;;;;;;;1.98;1.33;;;;;;;;;;6254873;22;20031;-90
2023/03/11 10:24:27;;;;;;;4.68;1.60;;;;;;;;;;6255299;22;20008;-90
2023/03/11 10:27:08;;;;;;;4.18;1.42;;;;;;;;;;6256286;22;19999;-90
2023/03/11 10:29:50;;;;;;;2.17;1.52;;;;;;;;;;6284223;22;20361;-90
2023/03/11 10:32:38;;;;;;;2.83;1.25;;;;;;;;;;6257138;22;20346;-90
2023/03/11 10:35:44;;;;;;;8.15;1.92;;;;;;;;;;6261655;22;20360;-90
2023/03/11 10:41:05;;;;;;;5.18;2.25;;;;;;;;;;6252980;22;20035;-91
2023/03/11 10:43:41;;;;;;;2.33;1.02;;;;;;;;;;6283633;22;20038;-91
2023/03/11 10:46:24;;;;;;;3.25;1.40;;;;;;;;;;6292760;22;20035;-91
2023/03/11 10:48:54;;;;;;;2.42;1.17;;;;;;;;;;6234801;22;20012;-91
2023/03/11 10:54:24;;;;;;;4.00;2.40;;;;;;;;;;6271465;22;20070;-91
2023/03/11 10:56:54;;;;;;;4.03;1.40;;;;;;;;;;6270563;22;20063;-90
2023/03/11 10:59:41;;;;;;;3.75;1.38;;;;;;;;;;6269055;22;19999;-91
2023/03/11 11:05:17;;;;;;;2.05;1.13;;;;;;;;;;6171240;23;20016;-91
2023/03/11 11:07:48;;;;;;;4.72;1.40;;;;;;;;;;6149300;23;20128;-90
2023/03/11 11:10:46;;;;;;;4.30;1.15;;;;;;;;;;6208917;22;20015;-91
2023/03/11 11:13:42;;;;;;;6.00;1.50;;;;;;;;;;6181855;23;20035;-92
2023/03/11 11:17:18;;;;;;;14.37;1.40;;;;;;;;;;6181507;23;20081;-92
2023/03/11 11:19:21;;;;;;;9.40;1.98;;;;;;;;;;6189828;23;20013;-92
2023/03/11 11:28:29;;;;;;;2.38;0.93;;;;;;;;;;6196089;23;20168;-91
2023/03/11 11:34:21;;;;;;;6.82;1.33;;;;;;;;;;6190264;23;20009;-92
2023/03/11 11:36:59;;;;;;;7.93;1.83;;;;;;;;;;6195120;22;20006;-92
2023/03/11 11:39:37;;;;;;;5.85;1.55;;;;;;;;;;6261758;22;20008;-92
2023/03/11 11:42:14;;;;;;;2.42;1.58;;;;;;;;;;6259180;22;20008;-91
2023/03/11 11:44:56;;;;;;;1.88;1.42;;;;;;;;;;6257619;22;20128;-92
2023/03/11 11:47:35;;;;;;;3.47;1.42;;;;;;;;;;6261908;22;20008;-92
2023/03/11 11:50:22;;;;;;;3.75;1.92;;;;;;;;;;6272313;22;20027;-92
2023/03/11 11:53:10;;;;;;;5.45;1.95;;;;;;;;;;6271140;22;20118;-93
2023/03/11 11:55:47;;;;;;;5.10;1.67;;;;;;;;;;6260781;22;20034;-92
2023/03/11 11:58:13;;;;;;;3.50;1.70;;;;;;;;;;6272594;22;20042;-92
2023/03/11 12:00:50;;;;;;;6.55;1.63;;;;;;;;;;6270632;22;20067;-92
2023/03/11 12:03:35;;;;;;;3.75;1.25;;;;;;;;;;6269955;22;20063;-93
2023/03/11 12:09:39;;;;;;;3.63;1.50;;;;;;;;;;6153239;23;20005;-94
2023/03/11 12:12:34;;;;;;;8.88;1.40;;;;;;;;;;6129071;23;20065;-94
2023/03/11 12:15:18;;;;;;;9.68;1.20;;;;;;;;;;6143008;23;20060;-95
2023/03/11 12:18:23;;;;;;;1.80;1.10;;;;;;;;;;6124896;23;20030;-94
2023/03/11 12:21:20;;;;;;;3.53;1.60;;;;;;;;;;6139215;23;20014;-95
2023/03/11 12:27:13;;;;;;;;;;;;;;;;;;;;;
2023/03/11 12:30:00;;;;;;;4.28;1.25;;;;;;;;;;6253208;23;20012;-94
2023/03/11 12:33:09;;;;;;;;;;;;;;;;;;;;;
2023/03/11 12:36:09;;;;;;;;;;;;;;;;;;;;;
2023/03/11 12:45:45;;;;;;;1.98;0.73;;;;;;;;;;6051236;23;20010;-94
2023/03/11 12:48:58;;;;;;;6.43;1.00;;;;;;;;;;6052203;23;20015;-94
2023/03/11 12:52:01;;;;;;;1.88;1.02;;;;;;;;;;6077319;23;20059;-94
2023/03/11 12:54:44;;;;;;;;;;;;;;;;;;;;;
2023/03/11 13:14:00;;;;;;;;;;;;;;;;;;;;;
2023/03/11 13:16:50;;;;;;;5.03;0.82;;;;;;;;;;6099382;23;20005;-91
2023/03/11 13:19:28;;;;;;;5.10;0.95;;;;;;;;;;6244530;22;20883;-92
2023/03/11 13:21:58;;;;;;;10.80;1.45;;;;;;;;;;6261698;22;20008;-92
2023/03/11 13:24:51;;;;;;;14.18;1.40;;;;;;;;;;6263064;22;20004;-92
2023/03/11 13:27:46;;;;;;;3.10;1.15;;;;;;;;;;6238212;22;20511;-92
2023/03/11 13:30:36;;;;;;;1.42;1.00;;;;;;;;;;6252912;22;20110;-91
2023/03/11 13:33:35;;;;;;;3.78;1.55;;;;;;;;;;6255249;22;20008;-91
2023/03/11 13:36:20;;;;;;;6.03;1.08;;;;;;;;;;6256069;22;20038;-91
2023/03/11 13:41:57;;;;;;;4.38;1.05;;;;;;;;;;6130041;23;20069;-93
2023/03/11 13:45:03;;;;;;;4.72;2.10;;;;;;;;;;6241880;22;20131;-93
2023/03/11 13:47:54;;;;;;;2.55;1.27;;;;;;;;;;6156474;23;20029;-94
2023/03/11 13:50:59;;;;;;;;;;;;;;;;;;;;;
2023/03/11 13:54:11;;;;;;;6.38;0.70;;;;;;;;;;6281356;22;20027;-93
2023/03/11 13:57:00;;;;;;;3.33;0.85;;;;;;;;;;6248504;22;20008;-93
2023/03/11 13:59:41;;;;;;;2.92;1.25;;;;;;;;;;6191280;22;20012;-92
2023/03/11 14:14:53;;;;;;;;;;;;;;;;;;;;;
2023/03/11 14:18:00;;;;;;;;;;;;;;;;;;;;;
2023/03/11 14:47:14;;;;;;;1.73;0.80;;;;;;;;;;6163436;23;20023;-92
2023/03/11 14:49:47;;;;;;;;;;;;;;;;;;;;;
2023/03/11 14:52:54;;;;;;;4.82;2.10;;;;;;;;;;6279813;22;20035;-92
2023/03/11 14:56:08;;;;;;;;;;;;;;;;;;;;;
2023/03/11 14:59:05;;;;;;;;;;;;;;;;;;;;;
2023/03/11 15:05:10;;;;;;;1.30;0.70;;;;;;;;;;6072749;23;20017;-92
2023/03/11 15:13:52;;;;;;;3.85;0.73;;;;;;;;;;6084297;23;20041;-92
2023/03/11 15:16:53;;;;;;;0.40;0.30;;;;;;;;;;6127954;23;20005;-92
2023/03/11 15:25:30;;;;;;;;;;;;;;;;;;;;;
2023/03/11 15:28:25;;;;;;;3.42;1.42;;;;;;;;;;6197930;23;20068;-92
2023/03/11 15:31:26;;;;;;;;;;;;;;;;;;;;;
2023/03/11 15:34:26;;;;;;;1.10;0.82;;;;;;;;;;6244128;23;20079;-92
2023/03/11 15:37:13;;;;;;;1.05;0.70;;;;;;;;;;6209954;23;20026;-92
2023/03/11 15:40:14;;;;;;;5.80;0.50;;;;;;;;;;6243712;23;20377;-91
2023/03/11 15:45:59;;;;;;;1.63;0.68;;;;;;;;;;6151733;23;20009;-92
2023/03/11 15:48:32;;;;;;;2.10;1.02;;;;;;;;;;6125699;23;20052;-92
2023/03/11 15:51:12;;;;;;;;;;;;;;;;;;;;;
2023/03/11 15:54:08;;;;;;;7.30;0.90;;;;;;;;;;6150992;23;20089;-91
2023/03/11 16:00:48;;;;;;;5.68;2.80;;;;;;;;;;6131794;23;20028;-92
2023/03/11 16:03:14;;;;;;;6.78;1.88;;;;;;;;;;6150897;23;20012;-91
2023/03/11 16:05:40;;;;;;;1.55;0.88;;;;;;;;;;6242717;23;20008;-92
2023/03/11 16:08:14;;;;;;;2.40;0.63;;;;;;;;;;6190816;23;20500;-92
2023/03/11 16:11:03;;;;;;;1.90;0.90;;;;;;;;;;6241419;23;20008;-92
2023/03/11 16:13:38;;;;;;;1.15;0.60;;;;;;;;;;6240543;23;20012;-92
2023/03/11 16:16:40;;;;;;;3.30;0.65;;;;;;;;;;6208739;23;20586;-92
2023/03/11 16:19:12;;;;;;;0.90;0.45;;;;;;;;;;6241105;23;20012;-92
2023/03/11 16:21:56;;;;;;;0.45;0.22;;;;;;;;;;6216175;22;20027;-91
2023/03/11 16:24:27;;;;;;;4.78;0.90;;;;;;;;;;6224391;22;20034;-91
2023/03/11 16:26:56;;;;;;;1.42;0.57;;;;;;;;;;6246826;22;20612;-92
2023/03/11 16:29:30;;;;;;;3.78;1.27;;;;;;;;;;6246844;22;20004;-92
2023/03/11 16:31:56;;;;;;;5.40;1.15;;;;;;;;;;6223739;22;20091;-92
2023/03/11 16:34:32;;;;;;;2.78;0.50;;;;;;;;;;6220784;22;20015;-92
2023/03/11 16:37:00;;;;;;;1.35;0.50;;;;;;;;;;6221584;22;20011;-93
2023/03/11 16:39:27;;;;;;;3.38;0.82;;;;;;;;;;6223304;22;20016;-92
2023/03/11 16:41:53;;;;;;;4.65;0.68;;;;;;;;;;6246484;22;20007;-92
2023/03/11 16:44:22;;;;;;;2.83;0.70;;;;;;;;;;6245275;22;20485;-93
2023/03/11 16:46:48;;;;;;;2.45;0.85;;;;;;;;;;6222046;22;20019;-92
2023/03/11 16:49:14;;;;;;;0.77;0.60;;;;;;;;;;6247736;22;20004;-92
2023/03/11 16:51:40;;;;;;;5.78;1.30;;;;;;;;;;6221631;22;20027;-93
2023/03/11 16:54:10;;;;;;;6.25;1.00;;;;;;;;;;6222306;22;20034;-93
2023/03/11 16:56:38;;;;;;;7.65;2.00;;;;;;;;;;6221445;22;20014;-93
2023/03/11 16:59:06;;;;;;;5.50;1.35;;;;;;;;;;6183035;23;20019;-92
2023/03/11 17:01:37;;;;;;;6.15;1.58;;;;;;;;;;6185563;23;20036;-93
2023/03/11 17:04:03;;;;;;;4.38;1.60;;;;;;;;;;6184957;23;20401;-91
2023/03/11 17:06:32;;;;;;;4.55;1.90;;;;;;;;;;6162646;23;20013;-92
2023/03/11 17:09:22;;;;;;;8.93;1.52;;;;;;;;;;6187423;23;20007;-92
2023/03/11 17:14:48;;;;;;;2.15;0.98;;;;;;;;;;6176663;23;20016;-93
2023/03/11 17:17:27;;;;;;;4.22;1.50;;;;;;;;;;6189096;23;20472;-92
2023/03/11 17:23:18;;;;;;;3.05;1.08;;;;;;;;;;6212337;22;20027;-92
2023/03/11 17:25:59;;;;;;;4.65;1.35;;;;;;;;;;6185375;23;20063;-92
2023/03/11 17:28:44;;;;;;;16.17;1.70;;;;;;;;;;6185876;23;20442;-92
2023/03/11 17:31:20;;;;;;;10.40;1.20;;;;;;;;;;6226829;22;20004;-92
2023/03/11 17:33:49;;;;;;;;;;;;;;;;;;6251050;22;20492;-92
2023/03/11 17:36:24;;;;;;;3.58;1.20;;;;;;;;;;6249329;22;19903;-92
2023/03/11 17:39:01;;;;;;;5.10;1.13;;;;;;;;;;6225823;22;20023;-92
2023/03/11 17:41:28;;;;;;;3.60;1.42;;;;;;;;;;6247599;22;20012;-92